sensor_id;sensor_type;location;lat;lon;timestamp;P1;durP1;ratioP1;P2;durP2;ratioP2
47713;SDS011;33475;46.614;13.888;2022-10-16T00:01:08;52.50;;;26.77;;
47713;SDS011;33475;46.614;13.888;2022-10-16T00:03:36;55.33;;;26.42;;
47713;SDS011;33475;46.614;13.888;2022-10-16T00:06:02;47.58;;;26.15;;
47713;SDS011;33475;46.614;13.888;2022-10-16T00:08:29;46.15;;;26.27;;
47713;SDS011;33475;46.614;13.888;2022-10-16T00:11:15;49.22;;;27.30;;
47713;SDS011;33475;46.614;13.888;2022-10-16T00:13:42;37.40;;;23.88;;
47713;SDS011;33475;46.614;13.888;2022-10-16T00:16:09;40.67;;;24.85;;
47713;SDS011;33475;46.614;13.888;2022-10-16T00:18:35;51.65;;;27.88;;
47713;SDS011;33475;46.614;13.888;2022-10-16T00:21:03;42.92;;;25.38;;
47713;SDS011;33475;46.614;13.888;2022-10-16T00:23:30;41.60;;;24.52;;
47713;SDS011;33475;46.614;13.888;2022-10-16T00:26:04;43.88;;;26.10;;
47713;SDS011;33475;46.614;13.888;2022-10-16T00:30:57;60.50;;;28.58;;
47713;SDS011;33475;46.614;13.888;2022-10-16T00:33:24;51.72;;;29.35;;
47713;SDS011;33475;46.614;13.888;2022-10-16T00:35:50;48.95;;;27.48;;
47713;SDS011;33475;46.614;13.888;2022-10-16T00:38:16;46.63;;;25.48;;
47713;SDS011;33475;46.614;13.888;2022-10-16T00:40:43;46.83;;;26.55;;
47713;SDS011;33475;46.614;13.888;2022-10-16T00:43:13;45.85;;;26.13;;
47713;SDS011;33475;46.614;13.888;2022-10-16T00:45:39;47.45;;;26.08;;
47713;SDS011;33475;46.614;13.888;2022-10-16T00:48:06;46.22;;;25.80;;
47713;SDS011;33475;46.614;13.888;2022-10-16T00:50:34;44.80;;;25.00;;
47713;SDS011;33475;46.614;13.888;2022-10-16T00:53:00;48.03;;;25.38;;
47713;SDS011;33475;46.614;13.888;2022-10-16T00:55:27;44.85;;;26.50;;
47713;SDS011;33475;46.614;13.888;2022-10-16T00:57:55;53.25;;;26.90;;
47713;SDS011;33475;46.614;13.888;2022-10-16T01:00:23;44.65;;;24.83;;
47713;SDS011;33475;46.614;13.888;2022-10-16T01:02:53;52.03;;;27.45;;
47713;SDS011;33475;46.614;13.888;2022-10-16T01:05:21;49.15;;;26.85;;
47713;SDS011;33475;46.614;13.888;2022-10-16T01:15:41;52.55;;;27.85;;
47713;SDS011;33475;46.614;13.888;2022-10-16T01:20:40;44.63;;;24.38;;
47713;SDS011;33475;46.614;13.888;2022-10-16T01:28:00;38.10;;;23.27;;
47713;SDS011;33475;46.614;13.888;2022-10-16T01:30:29;41.00;;;23.05;;
47713;SDS011;33475;46.614;13.888;2022-10-16T01:33:01;42.13;;;24.30;;
47713;SDS011;33475;46.614;13.888;2022-10-16T01:38:03;53.10;;;28.33;;
47713;SDS011;33475;46.614;13.888;2022-10-16T01:40:31;52.67;;;25.90;;
47713;SDS011;33475;46.614;13.888;2022-10-16T01:42:59;47.70;;;27.08;;
47713;SDS011;33475;46.614;13.888;2022-10-16T01:45:26;45.53;;;26.23;;
47713;SDS011;33475;46.614;13.888;2022-10-16T01:47:54;46.40;;;25.65;;
47713;SDS011;33475;46.614;13.888;2022-10-16T01:50:20;39.92;;;25.50;;
47713;SDS011;33475;46.614;13.888;2022-10-16T01:52:48;38.63;;;24.13;;
47713;SDS011;33475;46.614;13.888;2022-10-16T01:55:18;39.42;;;21.17;;
47713;SDS011;33475;46.614;13.888;2022-10-16T01:57:46;43.10;;;22.98;;
47713;SDS011;33475;46.614;13.888;2022-10-16T02:00:14;41.58;;;23.25;;
47713;SDS011;33475;46.614;13.888;2022-10-16T02:02:41;43.65;;;22.95;;
47713;SDS011;33475;46.614;13.888;2022-10-16T02:05:10;43.53;;;23.55;;
47713;SDS011;33475;46.614;13.888;2022-10-16T02:07:39;41.95;;;23.02;;
47713;SDS011;33475;46.614;13.888;2022-10-16T02:10:07;41.05;;;23.17;;
47713;SDS011;33475;46.614;13.888;2022-10-16T02:12:33;32.78;;;21.60;;
47713;SDS011;33475;46.614;13.888;2022-10-16T02:15:02;35.58;;;22.98;;
47713;SDS011;33475;46.614;13.888;2022-10-16T02:17:28;37.40;;;22.48;;
47713;SDS011;33475;46.614;13.888;2022-10-16T02:19:55;40.38;;;23.42;;
47713;SDS011;33475;46.614;13.888;2022-10-16T02:25:05;40.55;;;23.38;;
47713;SDS011;33475;46.614;13.888;2022-10-16T02:27:38;39.95;;;24.42;;
47713;SDS011;33475;46.614;13.888;2022-10-16T02:30:07;37.30;;;23.50;;
47713;SDS011;33475;46.614;13.888;2022-10-16T02:32:35;41.15;;;23.67;;
47713;SDS011;33475;46.614;13.888;2022-10-16T02:35:02;36.20;;;22.23;;
47713;SDS011;33475;46.614;13.888;2022-10-16T02:37:29;44.30;;;24.60;;
47713;SDS011;33475;46.614;13.888;2022-10-16T02:39:56;39.47;;;22.20;;
47713;SDS011;33475;46.614;13.888;2022-10-16T02:42:27;39.83;;;23.80;;
47713;SDS011;33475;46.614;13.888;2022-10-16T02:44:54;36.20;;;21.67;;
47713;SDS011;33475;46.614;13.888;2022-10-16T02:47:20;41.88;;;23.73;;
47713;SDS011;33475;46.614;13.888;2022-10-16T02:49:47;42.22;;;24.13;;
47713;SDS011;33475;46.614;13.888;2022-10-16T02:52:13;40.58;;;23.52;;
47713;SDS011;33475;46.614;13.888;2022-10-16T02:54:39;39.85;;;23.88;;
47713;SDS011;33475;46.614;13.888;2022-10-16T02:57:05;42.78;;;23.38;;
47713;SDS011;33475;46.614;13.888;2022-10-16T02:59:31;38.03;;;23.20;;
47713;SDS011;33475;46.614;13.888;2022-10-16T03:01:58;37.80;;;23.38;;
47713;SDS011;33475;46.614;13.888;2022-10-16T03:04:24;37.33;;;21.80;;
47713;SDS011;33475;46.614;13.888;2022-10-16T03:06:50;43.20;;;24.77;;
47713;SDS011;33475;46.614;13.888;2022-10-16T03:09:16;44.97;;;24.65;;
47713;SDS011;33475;46.614;13.888;2022-10-16T03:11:42;38.15;;;23.67;;
47713;SDS011;33475;46.614;13.888;2022-10-16T03:14:08;37.90;;;22.92;;
47713;SDS011;33475;46.614;13.888;2022-10-16T03:16:34;36.05;;;23.17;;
47713;SDS011;33475;46.614;13.888;2022-10-16T03:19:00;33.75;;;23.10;;
47713;SDS011;33475;46.614;13.888;2022-10-16T03:21:27;38.08;;;23.65;;
47713;SDS011;33475;46.614;13.888;2022-10-16T03:23:53;39.38;;;22.10;;
47713;SDS011;33475;46.614;13.888;2022-10-16T03:26:19;45.95;;;24.75;;
47713;SDS011;33475;46.614;13.888;2022-10-16T03:28:45;36.28;;;23.58;;
47713;SDS011;33475;46.614;13.888;2022-10-16T03:31:11;27.85;;;20.38;;
47713;SDS011;33475;46.614;13.888;2022-10-16T03:33:37;36.20;;;22.85;;
47713;SDS011;33475;46.614;13.888;2022-10-16T03:36:03;35.88;;;22.73;;
47713;SDS011;33475;46.614;13.888;2022-10-16T03:38:30;44.20;;;23.42;;
47713;SDS011;33475;46.614;13.888;2022-10-16T03:40:56;51.40;;;25.83;;
47713;SDS011;33475;46.614;13.888;2022-10-16T03:43:22;37.95;;;22.67;;
47713;SDS011;33475;46.614;13.888;2022-10-16T03:45:49;39.75;;;23.98;;
47713;SDS011;33475;46.614;13.888;2022-10-16T03:48:17;45.13;;;24.83;;
47713;SDS011;33475;46.614;13.888;2022-10-16T03:50:43;44.50;;;23.95;;
47713;SDS011;33475;46.614;13.888;2022-10-16T03:53:09;40.38;;;24.27;;
47713;SDS011;33475;46.614;13.888;2022-10-16T03:55:35;45.45;;;26.13;;
47713;SDS011;33475;46.614;13.888;2022-10-16T03:58:01;49.53;;;25.98;;
47713;SDS011;33475;46.614;13.888;2022-10-16T04:00:28;54.28;;;27.17;;
47713;SDS011;33475;46.614;13.888;2022-10-16T04:02:54;55.00;;;26.65;;
47713;SDS011;33475;46.614;13.888;2022-10-16T04:05:20;48.30;;;26.05;;
47713;SDS011;33475;46.614;13.888;2022-10-16T04:07:46;40.60;;;23.85;;
47713;SDS011;33475;46.614;13.888;2022-10-16T04:10:12;40.40;;;23.88;;
47713;SDS011;33475;46.614;13.888;2022-10-16T04:12:38;50.38;;;25.08;;
47713;SDS011;33475;46.614;13.888;2022-10-16T04:15:04;52.40;;;26.02;;
47713;SDS011;33475;46.614;13.888;2022-10-16T04:17:31;52.70;;;27.50;;
47713;SDS011;33475;46.614;13.888;2022-10-16T04:19:57;56.22;;;28.20;;
47713;SDS011;33475;46.614;13.888;2022-10-16T04:22:23;53.80;;;25.45;;
47713;SDS011;33475;46.614;13.888;2022-10-16T04:24:49;46.50;;;26.27;;
47713;SDS011;33475;46.614;13.888;2022-10-16T04:27:16;48.55;;;25.25;;
47713;SDS011;33475;46.614;13.888;2022-10-16T04:29:42;51.42;;;25.23;;
47713;SDS011;33475;46.614;13.888;2022-10-16T04:32:08;51.20;;;25.50;;
47713;SDS011;33475;46.614;13.888;2022-10-16T04:34:34;59.83;;;25.45;;
47713;SDS011;33475;46.614;13.888;2022-10-16T04:37:01;48.50;;;25.83;;
47713;SDS011;33475;46.614;13.888;2022-10-16T04:39:27;39.00;;;24.00;;
47713;SDS011;33475;46.614;13.888;2022-10-16T04:41:53;40.10;;;22.55;;
47713;SDS011;33475;46.614;13.888;2022-10-16T04:44:19;41.67;;;23.42;;
47713;SDS011;33475;46.614;13.888;2022-10-16T04:46:45;39.05;;;23.98;;
47713;SDS011;33475;46.614;13.888;2022-10-16T04:49:11;40.38;;;23.35;;
47713;SDS011;33475;46.614;13.888;2022-10-16T04:51:37;36.72;;;22.98;;
47713;SDS011;33475;46.614;13.888;2022-10-16T04:54:04;43.85;;;23.95;;
47713;SDS011;33475;46.614;13.888;2022-10-16T04:56:30;37.05;;;22.45;;
47713;SDS011;33475;46.614;13.888;2022-10-16T04:58:56;39.65;;;22.48;;
47713;SDS011;33475;46.614;13.888;2022-10-16T05:01:22;36.58;;;22.60;;
47713;SDS011;33475;46.614;13.888;2022-10-16T05:03:48;43.13;;;23.02;;
47713;SDS011;33475;46.614;13.888;2022-10-16T05:06:14;41.67;;;24.50;;
47713;SDS011;33475;46.614;13.888;2022-10-16T05:08:40;38.72;;;23.60;;
47713;SDS011;33475;46.614;13.888;2022-10-16T05:11:06;40.10;;;22.27;;
47713;SDS011;33475;46.614;13.888;2022-10-16T05:13:32;40.42;;;22.08;;
47713;SDS011;33475;46.614;13.888;2022-10-16T05:15:58;48.50;;;23.58;;
47713;SDS011;33475;46.614;13.888;2022-10-16T05:18:25;42.38;;;22.75;;
47713;SDS011;33475;46.614;13.888;2022-10-16T05:20:51;46.60;;;23.83;;
47713;SDS011;33475;46.614;13.888;2022-10-16T05:23:17;37.72;;;23.02;;
47713;SDS011;33475;46.614;13.888;2022-10-16T05:25:43;43.08;;;22.60;;
47713;SDS011;33475;46.614;13.888;2022-10-16T05:28:09;36.80;;;22.10;;
47713;SDS011;33475;46.614;13.888;2022-10-16T05:30:36;40.30;;;23.30;;
47713;SDS011;33475;46.614;13.888;2022-10-16T05:33:03;42.13;;;23.27;;
47713;SDS011;33475;46.614;13.888;2022-10-16T05:35:29;43.60;;;23.27;;
47713;SDS011;33475;46.614;13.888;2022-10-16T05:37:55;47.25;;;24.83;;
47713;SDS011;33475;46.614;13.888;2022-10-16T05:40:21;57.88;;;26.50;;
47713;SDS011;33475;46.614;13.888;2022-10-16T05:42:47;46.38;;;24.98;;
47713;SDS011;33475;46.614;13.888;2022-10-16T05:45:14;46.22;;;24.42;;
47713;SDS011;33475;46.614;13.888;2022-10-16T05:47:40;39.35;;;23.48;;
47713;SDS011;33475;46.614;13.888;2022-10-16T05:50:06;40.08;;;23.27;;
47713;SDS011;33475;46.614;13.888;2022-10-16T05:52:32;38.05;;;23.42;;
47713;SDS011;33475;46.614;13.888;2022-10-16T05:54:59;39.53;;;23.00;;
47713;SDS011;33475;46.614;13.888;2022-10-16T05:57:25;36.30;;;22.65;;
47713;SDS011;33475;46.614;13.888;2022-10-16T05:59:51;38.33;;;23.45;;
47713;SDS011;33475;46.614;13.888;2022-10-16T06:02:17;68.55;;;28.90;;
47713;SDS011;33475;46.614;13.888;2022-10-16T06:04:43;66.20;;;30.48;;
47713;SDS011;33475;46.614;13.888;2022-10-16T06:07:09;62.75;;;27.10;;
47713;SDS011;33475;46.614;13.888;2022-10-16T06:09:35;40.35;;;23.70;;
47713;SDS011;33475;46.614;13.888;2022-10-16T06:12:02;45.47;;;23.52;;
47713;SDS011;33475;46.614;13.888;2022-10-16T06:14:28;41.05;;;22.73;;
47713;SDS011;33475;46.614;13.888;2022-10-16T06:16:54;40.95;;;21.92;;
47713;SDS011;33475;46.614;13.888;2022-10-16T06:19:20;36.50;;;22.55;;
47713;SDS011;33475;46.614;13.888;2022-10-16T06:21:47;40.00;;;22.67;;
47713;SDS011;33475;46.614;13.888;2022-10-16T06:24:14;39.45;;;22.33;;
47713;SDS011;33475;46.614;13.888;2022-10-16T06:26:40;36.90;;;22.95;;
47713;SDS011;33475;46.614;13.888;2022-10-16T06:29:06;32.03;;;20.40;;
47713;SDS011;33475;46.614;13.888;2022-10-16T06:31:32;30.73;;;21.05;;
47713;SDS011;33475;46.614;13.888;2022-10-16T06:33:59;30.23;;;20.05;;
47713;SDS011;33475;46.614;13.888;2022-10-16T06:36:25;43.03;;;23.88;;
47713;SDS011;33475;46.614;13.888;2022-10-16T06:38:52;33.63;;;20.63;;
47713;SDS011;33475;46.614;13.888;2022-10-16T06:41:19;29.98;;;20.45;;
47713;SDS011;33475;46.614;13.888;2022-10-16T06:43:46;31.13;;;20.13;;
47713;SDS011;33475;46.614;13.888;2022-10-16T06:46:14;32.22;;;22.10;;
47713;SDS011;33475;46.614;13.888;2022-10-16T06:48:40;29.02;;;19.73;;
47713;SDS011;33475;46.614;13.888;2022-10-16T06:51:10;27.60;;;20.98;;
47713;SDS011;33475;46.614;13.888;2022-10-16T06:53:38;30.27;;;21.05;;
47713;SDS011;33475;46.614;13.888;2022-10-16T06:56:08;29.17;;;19.27;;
47713;SDS011;33475;46.614;13.888;2022-10-16T06:58:35;26.98;;;19.88;;
47713;SDS011;33475;46.614;13.888;2022-10-16T07:01:02;27.77;;;18.77;;
47713;SDS011;33475;46.614;13.888;2022-10-16T07:03:28;30.45;;;19.15;;
47713;SDS011;33475;46.614;13.888;2022-10-16T07:05:54;25.30;;;18.38;;
47713;SDS011;33475;46.614;13.888;2022-10-16T07:08:21;29.80;;;18.92;;
47713;SDS011;33475;46.614;13.888;2022-10-16T07:10:47;26.00;;;18.77;;
47713;SDS011;33475;46.614;13.888;2022-10-16T07:13:13;28.63;;;20.48;;
47713;SDS011;33475;46.614;13.888;2022-10-16T07:15:40;21.70;;;17.75;;
47713;SDS011;33475;46.614;13.888;2022-10-16T07:18:06;26.60;;;18.45;;
47713;SDS011;33475;46.614;13.888;2022-10-16T07:20:33;29.10;;;18.17;;
47713;SDS011;33475;46.614;13.888;2022-10-16T07:22:59;33.22;;;17.00;;
47713;SDS011;33475;46.614;13.888;2022-10-16T07:25:25;24.80;;;17.33;;
47713;SDS011;33475;46.614;13.888;2022-10-16T07:27:51;19.00;;;15.73;;
47713;SDS011;33475;46.614;13.888;2022-10-16T07:30:18;22.65;;;17.63;;
47713;SDS011;33475;46.614;13.888;2022-10-16T07:32:44;26.85;;;18.35;;
47713;SDS011;33475;46.614;13.888;2022-10-16T07:35:10;23.70;;;17.23;;
47713;SDS011;33475;46.614;13.888;2022-10-16T07:37:36;24.75;;;18.48;;
47713;SDS011;33475;46.614;13.888;2022-10-16T07:40:02;27.55;;;21.30;;
47713;SDS011;33475;46.614;13.888;2022-10-16T07:42:28;26.33;;;17.63;;
47713;SDS011;33475;46.614;13.888;2022-10-16T07:44:55;20.67;;;17.67;;
47713;SDS011;33475;46.614;13.888;2022-10-16T07:47:21;22.67;;;17.77;;
47713;SDS011;33475;46.614;13.888;2022-10-16T07:49:47;39.05;;;29.15;;
47713;SDS011;33475;46.614;13.888;2022-10-16T07:52:13;22.85;;;18.67;;
47713;SDS011;33475;46.614;13.888;2022-10-16T07:54:39;23.35;;;19.20;;
47713;SDS011;33475;46.614;13.888;2022-10-16T07:57:05;23.98;;;17.52;;
47713;SDS011;33475;46.614;13.888;2022-10-16T07:59:32;22.05;;;17.40;;
47713;SDS011;33475;46.614;13.888;2022-10-16T08:01:58;18.52;;;16.60;;
47713;SDS011;33475;46.614;13.888;2022-10-16T08:04:24;19.50;;;16.60;;
47713;SDS011;33475;46.614;13.888;2022-10-16T08:06:50;23.52;;;16.17;;
47713;SDS011;33475;46.614;13.888;2022-10-16T08:09:16;17.77;;;15.13;;
47713;SDS011;33475;46.614;13.888;2022-10-16T08:11:42;19.70;;;16.60;;
47713;SDS011;33475;46.614;13.888;2022-10-16T08:14:08;15.43;;;13.93;;
47713;SDS011;33475;46.614;13.888;2022-10-16T08:16:34;19.85;;;12.10;;
47713;SDS011;33475;46.614;13.888;2022-10-16T08:19:00;16.65;;;13.48;;
47713;SDS011;33475;46.614;13.888;2022-10-16T08:21:27;16.98;;;14.73;;
47713;SDS011;33475;46.614;13.888;2022-10-16T08:23:53;23.55;;;14.63;;
47713;SDS011;33475;46.614;13.888;2022-10-16T08:26:20;18.90;;;14.77;;
47713;SDS011;33475;46.614;13.888;2022-10-16T08:28:49;15.80;;;14.20;;
47713;SDS011;33475;46.614;13.888;2022-10-16T08:31:16;15.38;;;12.82;;
47713;SDS011;33475;46.614;13.888;2022-10-16T08:33:43;18.77;;;13.60;;
47713;SDS011;33475;46.614;13.888;2022-10-16T08:36:11;15.10;;;12.98;;
47713;SDS011;33475;46.614;13.888;2022-10-16T08:38:38;19.00;;;14.00;;
47713;SDS011;33475;46.614;13.888;2022-10-16T08:41:22;19.17;;;12.80;;
47713;SDS011;33475;46.614;13.888;2022-10-16T08:46:37;14.98;;;12.45;;
47713;SDS011;33475;46.614;13.888;2022-10-16T08:49:09;15.50;;;13.15;;
47713;SDS011;33475;46.614;13.888;2022-10-16T08:51:37;14.20;;;12.75;;
47713;SDS011;33475;46.614;13.888;2022-10-16T08:54:05;14.30;;;12.38;;
47713;SDS011;33475;46.614;13.888;2022-10-16T08:56:31;17.40;;;12.63;;
47713;SDS011;33475;46.614;13.888;2022-10-16T08:58:58;17.38;;;12.05;;
47713;SDS011;33475;46.614;13.888;2022-10-16T09:01:27;16.25;;;11.45;;
47713;SDS011;33475;46.614;13.888;2022-10-16T09:16:39;12.18;;;10.23;;
47713;SDS011;33475;46.614;13.888;2022-10-16T09:19:20;10.80;;;9.57;;
47713;SDS011;33475;46.614;13.888;2022-10-16T09:21:48;14.32;;;8.98;;
47713;SDS011;33475;46.614;13.888;2022-10-16T09:24:24;8.93;;;8.13;;
47713;SDS011;33475;46.614;13.888;2022-10-16T09:26:51;9.95;;;8.95;;
47713;SDS011;33475;46.614;13.888;2022-10-16T09:29:18;9.75;;;9.00;;
47713;SDS011;33475;46.614;13.888;2022-10-16T09:31:45;8.68;;;7.88;;
47713;SDS011;33475;46.614;13.888;2022-10-16T09:34:22;9.02;;;7.70;;
47713;SDS011;33475;46.614;13.888;2022-10-16T09:36:53;8.75;;;7.95;;
47713;SDS011;33475;46.614;13.888;2022-10-16T09:39:20;9.75;;;8.65;;
47713;SDS011;33475;46.614;13.888;2022-10-16T09:41:46;9.80;;;7.93;;
47713;SDS011;33475;46.614;13.888;2022-10-16T09:44:25;8.73;;;7.97;;
47713;SDS011;33475;46.614;13.888;2022-10-16T09:47:02;8.40;;;7.68;;
47713;SDS011;33475;46.614;13.888;2022-10-16T09:49:28;8.70;;;7.90;;
47713;SDS011;33475;46.614;13.888;2022-10-16T09:55:01;7.88;;;7.10;;
47713;SDS011;33475;46.614;13.888;2022-10-16T09:57:27;10.98;;;7.60;;
47713;SDS011;33475;46.614;13.888;2022-10-16T09:59:55;8.57;;;7.63;;
47713;SDS011;33475;46.614;13.888;2022-10-16T10:02:29;8.95;;;8.15;;
47713;SDS011;33475;46.614;13.888;2022-10-16T10:04:56;7.78;;;7.07;;
47713;SDS011;33475;46.614;13.888;2022-10-16T10:07:37;9.45;;;7.35;;
47713;SDS011;33475;46.614;13.888;2022-10-16T10:10:04;8.13;;;6.95;;
47713;SDS011;33475;46.614;13.888;2022-10-16T10:12:31;9.18;;;6.70;;
47713;SDS011;33475;46.614;13.888;2022-10-16T10:15:05;12.18;;;7.03;;
47713;SDS011;33475;46.614;13.888;2022-10-16T10:17:32;7.65;;;7.05;;
47713;SDS011;33475;46.614;13.888;2022-10-16T10:20:00;10.88;;;6.78;;
47713;SDS011;33475;46.614;13.888;2022-10-16T10:24:57;7.70;;;6.55;;
47713;SDS011;33475;46.614;13.888;2022-10-16T10:45:42;7.20;;;6.53;;
47713;SDS011;33475;46.614;13.888;2022-10-16T10:50:38;6.55;;;5.95;;
47713;SDS011;33475;46.614;13.888;2022-10-16T10:53:31;6.88;;;6.28;;
47713;SDS011;33475;46.614;13.888;2022-10-16T10:55:54;6.40;;;5.88;;
47713;SDS011;33475;46.614;13.888;2022-10-16T10:58:43;6.82;;;5.95;;
47713;SDS011;33475;46.614;13.888;2022-10-16T11:01:17;7.18;;;6.35;;
47713;SDS011;33475;46.614;13.888;2022-10-16T11:06:30;6.10;;;5.57;;
47713;SDS011;33475;46.614;13.888;2022-10-16T11:11:50;6.35;;;5.85;;
47713;SDS011;33475;46.614;13.888;2022-10-16T11:14:19;7.70;;;6.03;;
47713;SDS011;33475;46.614;13.888;2022-10-16T11:21:56;6.20;;;5.53;;
47713;SDS011;33475;46.614;13.888;2022-10-16T11:26:52;6.07;;;5.57;;
47713;SDS011;33475;46.614;13.888;2022-10-16T11:29:23;6.28;;;5.78;;
47713;SDS011;33475;46.614;13.888;2022-10-16T11:31:57;6.10;;;5.50;;
47713;SDS011;33475;46.614;13.888;2022-10-16T11:34:44;7.20;;;6.45;;
47713;SDS011;33475;46.614;13.888;2022-10-16T11:39:42;5.88;;;5.38;;
47713;SDS011;33475;46.614;13.888;2022-10-16T11:45:54;6.78;;;5.40;;
47713;SDS011;33475;46.614;13.888;2022-10-16T11:48:13;5.82;;;5.38;;
47713;SDS011;33475;46.614;13.888;2022-10-16T11:55:43;5.97;;;5.57;;
47713;SDS011;33475;46.614;13.888;2022-10-16T12:08:25;7.28;;;5.30;;
47713;SDS011;33475;46.614;13.888;2022-10-16T12:10:52;6.30;;;5.68;;
47713;SDS011;33475;46.614;13.888;2022-10-16T12:13:36;5.95;;;5.45;;
47713;SDS011;33475;46.614;13.888;2022-10-16T12:18:42;5.97;;;5.40;;
47713;SDS011;33475;46.614;13.888;2022-10-16T12:21:09;5.60;;;5.20;;
47713;SDS011;33475;46.614;13.888;2022-10-16T12:23:45;5.72;;;5.22;;
47713;SDS011;33475;46.614;13.888;2022-10-16T12:26:12;7.82;;;5.30;;
47713;SDS011;33475;46.614;13.888;2022-10-16T12:28:38;6.10;;;5.18;;
47713;SDS011;33475;46.614;13.888;2022-10-16T12:31:06;7.78;;;5.82;;
47713;SDS011;33475;46.614;13.888;2022-10-16T12:33:39;5.82;;;5.25;;
47713;SDS011;33475;46.614;13.888;2022-10-16T12:36:16;6.35;;;5.75;;
47713;SDS011;33475;46.614;13.888;2022-10-16T12:38:52;6.35;;;5.85;;
47713;SDS011;33475;46.614;13.888;2022-10-16T12:43:52;6.45;;;5.85;;
47713;SDS011;33475;46.614;13.888;2022-10-16T12:48:45;6.82;;;6.22;;
47713;SDS011;33475;46.614;13.888;2022-10-16T12:51:33;7.03;;;6.53;;
47713;SDS011;33475;46.614;13.888;2022-10-16T12:59:04;7.03;;;6.43;;
47713;SDS011;33475;46.614;13.888;2022-10-16T13:01:39;9.18;;;6.68;;
47713;SDS011;33475;46.614;13.888;2022-10-16T13:07:01;7.05;;;6.43;;
47713;SDS011;33475;46.614;13.888;2022-10-16T13:17:52;8.05;;;6.53;;
47713;SDS011;33475;46.614;13.888;2022-10-16T13:20:28;7.40;;;6.80;;
47713;SDS011;33475;46.614;13.888;2022-10-16T13:28:07;8.77;;;6.53;;
47713;SDS011;33475;46.614;13.888;2022-10-16T13:30:39;7.03;;;6.43;;
47713;SDS011;33475;46.614;13.888;2022-10-16T13:33:28;6.15;;;5.65;;
47713;SDS011;33475;46.614;13.888;2022-10-16T13:35:56;6.57;;;5.65;;
47713;SDS011;33475;46.614;13.888;2022-10-16T13:38:24;6.63;;;6.13;;
47713;SDS011;33475;46.614;13.888;2022-10-16T13:43:18;6.68;;;5.97;;
47713;SDS011;33475;46.614;13.888;2022-10-16T13:45:55;6.85;;;6.10;;
47713;SDS011;33475;46.614;13.888;2022-10-16T13:48:21;7.63;;;6.30;;
47713;SDS011;33475;46.614;13.888;2022-10-16T13:50:58;6.75;;;6.25;;
47713;SDS011;33475;46.614;13.888;2022-10-16T13:53:24;8.75;;;5.55;;
47713;SDS011;33475;46.614;13.888;2022-10-16T13:55:50;6.85;;;6.05;;
47713;SDS011;33475;46.614;13.888;2022-10-16T13:58:16;6.82;;;6.22;;
47713;SDS011;33475;46.614;13.888;2022-10-16T14:00:55;7.88;;;5.65;;
47713;SDS011;33475;46.614;13.888;2022-10-16T14:03:22;6.40;;;5.90;;
47713;SDS011;33475;46.614;13.888;2022-10-16T14:05:52;8.30;;;6.10;;
47713;SDS011;33475;46.614;13.888;2022-10-16T14:08:19;16.63;;;6.15;;
47713;SDS011;33475;46.614;13.888;2022-10-16T14:10:49;7.03;;;6.10;;
47713;SDS011;33475;46.614;13.888;2022-10-16T14:13:20;9.45;;;5.90;;
47713;SDS011;33475;46.614;13.888;2022-10-16T14:15:49;11.18;;;6.47;;
47713;SDS011;33475;46.614;13.888;2022-10-16T14:18:18;9.45;;;6.10;;
47713;SDS011;33475;46.614;13.888;2022-10-16T14:20:45;11.55;;;6.22;;
47713;SDS011;33475;46.614;13.888;2022-10-16T14:25:47;6.93;;;6.22;;
47713;SDS011;33475;46.614;13.888;2022-10-16T14:28:23;10.05;;;6.47;;
47713;SDS011;33475;46.614;13.888;2022-10-16T14:33:39;7.72;;;5.80;;
47713;SDS011;33475;46.614;13.888;2022-10-16T14:36:06;6.75;;;6.22;;
47713;SDS011;33475;46.614;13.888;2022-10-16T14:38:37;7.53;;;6.10;;
47713;SDS011;33475;46.614;13.888;2022-10-16T14:41:04;6.53;;;5.97;;
47713;SDS011;33475;46.614;13.888;2022-10-16T14:43:34;6.88;;;6.28;;
47713;SDS011;33475;46.614;13.888;2022-10-16T14:46:01;8.18;;;6.38;;
47713;SDS011;33475;46.614;13.888;2022-10-16T14:48:28;7.00;;;6.00;;
47713;SDS011;33475;46.614;13.888;2022-10-16T14:50:55;6.68;;;6.03;;
47713;SDS011;33475;46.614;13.888;2022-10-16T14:53:21;7.28;;;6.57;;
47713;SDS011;33475;46.614;13.888;2022-10-16T14:55:47;7.30;;;6.70;;
47713;SDS011;33475;46.614;13.888;2022-10-16T14:58:21;17.50;;;6.25;;
47713;SDS011;33475;46.614;13.888;2022-10-16T15:00:48;6.70;;;5.68;;
47713;SDS011;33475;46.614;13.888;2022-10-16T15:03:14;6.20;;;5.70;;
47713;SDS011;33475;46.614;13.888;2022-10-16T15:05:40;8.73;;;6.70;;
47713;SDS011;33475;46.614;13.888;2022-10-16T15:08:07;7.35;;;6.00;;
47713;SDS011;33475;46.614;13.888;2022-10-16T15:10:35;6.47;;;5.85;;
47713;SDS011;33475;46.614;13.888;2022-10-16T15:13:03;10.07;;;5.95;;
47713;SDS011;33475;46.614;13.888;2022-10-16T15:15:48;8.55;;;7.70;;
47713;SDS011;33475;46.614;13.888;2022-10-16T15:18:14;10.13;;;7.20;;
47713;SDS011;33475;46.614;13.888;2022-10-16T15:20:45;7.97;;;7.28;;
47713;SDS011;33475;46.614;13.888;2022-10-16T15:28:07;10.95;;;7.95;;
47713;SDS011;33475;46.614;13.888;2022-10-16T15:30:34;8.25;;;7.55;;
47713;SDS011;33475;46.614;13.888;2022-10-16T15:33:01;9.48;;;8.57;;
47713;SDS011;33475;46.614;13.888;2022-10-16T15:35:28;8.77;;;8.07;;
47713;SDS011;33475;46.614;13.888;2022-10-16T15:37:54;9.35;;;8.35;;
47713;SDS011;33475;46.614;13.888;2022-10-16T15:40:20;17.10;;;8.43;;
47713;SDS011;33475;46.614;13.888;2022-10-16T15:42:47;11.90;;;9.50;;
47713;SDS011;33475;46.614;13.888;2022-10-16T15:45:13;10.65;;;8.15;;
47713;SDS011;33475;46.614;13.888;2022-10-16T15:47:43;11.23;;;10.23;;
47713;SDS011;33475;46.614;13.888;2022-10-16T15:50:10;15.88;;;10.82;;
47713;SDS011;33475;46.614;13.888;2022-10-16T15:52:37;10.07;;;9.07;;
47713;SDS011;33475;46.614;13.888;2022-10-16T15:55:05;10.68;;;9.75;;
47713;SDS011;33475;46.614;13.888;2022-10-16T15:57:31;9.88;;;8.65;;
47713;SDS011;33475;46.614;13.888;2022-10-16T15:59:58;10.65;;;9.40;;
47713;SDS011;33475;46.614;13.888;2022-10-16T16:02:24;11.68;;;9.55;;
47713;SDS011;33475;46.614;13.888;2022-10-16T16:04:50;10.75;;;9.75;;
47713;SDS011;33475;46.614;13.888;2022-10-16T16:07:17;10.73;;;9.00;;
47713;SDS011;33475;46.614;13.888;2022-10-16T16:09:43;17.15;;;12.73;;
47713;SDS011;33475;46.614;13.888;2022-10-16T16:12:10;16.98;;;10.52;;
47713;SDS011;33475;46.614;13.888;2022-10-16T16:14:36;11.80;;;10.70;;
47713;SDS011;33475;46.614;13.888;2022-10-16T16:17:02;11.70;;;10.43;;
47713;SDS011;33475;46.614;13.888;2022-10-16T16:19:28;10.90;;;9.82;;
47713;SDS011;33475;46.614;13.888;2022-10-16T16:21:54;11.98;;;10.85;;
47713;SDS011;33475;46.614;13.888;2022-10-16T16:24:20;13.68;;;12.02;;
47713;SDS011;33475;46.614;13.888;2022-10-16T16:26:46;14.38;;;11.30;;
47713;SDS011;33475;46.614;13.888;2022-10-16T16:29:13;11.65;;;10.57;;
47713;SDS011;33475;46.614;13.888;2022-10-16T16:31:40;11.15;;;10.07;;
47713;SDS011;33475;46.614;13.888;2022-10-16T16:34:07;14.07;;;11.35;;
47713;SDS011;33475;46.614;13.888;2022-10-16T16:36:33;18.50;;;12.52;;
47713;SDS011;33475;46.614;13.888;2022-10-16T16:39:00;11.40;;;10.10;;
47713;SDS011;33475;46.614;13.888;2022-10-16T16:41:27;18.30;;;10.35;;